sensor_id;sensor_type;location;lat;lon;timestamp;temperature;humidity
10911;DHT22;5508;49.150;11.030;2023-04-01T00:02:17;7.20;98.90
10911;DHT22;5508;49.150;11.030;2023-04-01T00:05:17;7.20;98.50
10911;DHT22;5508;49.150;11.030;2023-04-01T00:08:18;7.20;99.60
10911;DHT22;5508;49.150;11.030;2023-04-01T00:11:19;7.10;99.60
10911;DHT22;5508;49.150;11.030;2023-04-01T00:14:19;7.00;99.60
10911;DHT22;5508;49.150;11.030;2023-04-01T00:17:20;7.00;99.50
10911;DHT22;5508;49.150;11.030;2023-04-01T00:20:22;6.80;99.90
10911;DHT22;5508;49.150;11.030;2023-04-01T00:23:22;6.80;99.90
10911;DHT22;5508;49.150;11.030;2023-04-01T00:26:23;6.80;99.90
10911;DHT22;5508;49.150;11.030;2023-04-01T00:29:24;6.90;99.90
10911;DHT22;5508;49.150;11.030;2023-04-01T00:32:29;6.90;99.90
10911;DHT22;5508;49.150;11.030;2023-04-01T00:35:31;6.90;99.90
10911;DHT22;5508;49.150;11.030;2023-04-01T00:38:32;6.80;99.90
10911;DHT22;5508;49.150;11.030;2023-04-01T00:41:33;6.80;99.90
10911;DHT22;5508;49.150;11.030;2023-04-01T00:44:34;6.80;99.90
10911;DHT22;5508;49.150;11.030;2023-04-01T00:47:34;6.80;99.90
10911;DHT22;5508;49.150;11.030;2023-04-01T00:50:37;6.80;99.90
10911;DHT22;5508;49.150;11.030;2023-04-01T00:53:43;6.90;99.90
10911;DHT22;5508;49.150;11.030;2023-04-01T00:59:56;6.80;99.90
10911;DHT22;5508;49.150;11.030;2023-04-01T01:02:57;6.70;99.90
10911;DHT22;5508;49.150;11.030;2023-04-01T01:06:26;6.70;99.90
10911;DHT22;5508;49.150;11.030;2023-04-01T01:16:09;6.80;99.90
10911;DHT22;5508;49.150;11.030;2023-04-01T01:35:49;6.60;99.80
10911;DHT22;5508;49.150;11.030;2023-04-01T01:38:51;6.70;99.80
10911;DHT22;5508;49.150;11.030;2023-04-01T01:41:53;6.80;99.90
10911;DHT22;5508;49.150;11.030;2023-04-01T01:44:57;6.80;98.80
10911;DHT22;5508;49.150;11.030;2023-04-01T01:48:00;6.90;98.40
10911;DHT22;5508;49.150;11.030;2023-04-01T01:51:06;6.90;98.60
10911;DHT22;5508;49.150;11.030;2023-04-01T01:54:15;6.80;98.60
10911;DHT22;5508;49.150;11.030;2023-04-01T01:57:16;6.80;99.10
10911;DHT22;5508;49.150;11.030;2023-04-01T02:00:18;6.80;99.20
10911;DHT22;5508;49.150;11.030;2023-04-01T02:03:21;6.70;99.60
10911;DHT22;5508;49.150;11.030;2023-04-01T02:06:26;6.70;99.10
10911;DHT22;5508;49.150;11.030;2023-04-01T02:09:27;6.70;99.70
10911;DHT22;5508;49.150;11.030;2023-04-01T02:12:30;6.60;99.90
10911;DHT22;5508;49.150;11.030;2023-04-01T02:15:33;6.70;99.80
10911;DHT22;5508;49.150;11.030;2023-04-01T02:18:38;6.60;99.90
10911;DHT22;5508;49.150;11.030;2023-04-01T02:21:40;6.60;99.90
10911;DHT22;5508;49.150;11.030;2023-04-01T02:24:43;6.70;99.90
10911;DHT22;5508;49.150;11.030;2023-04-01T02:27:46;6.60;99.90
10911;DHT22;5508;49.150;11.030;2023-04-01T02:30:48;6.60;99.90
10911;DHT22;5508;49.150;11.030;2023-04-01T02:33:50;6.70;99.90
10911;DHT22;5508;49.150;11.030;2023-04-01T02:36:51;6.80;99.10
10911;DHT22;5508;49.150;11.030;2023-04-01T02:39:52;6.70;99.50
10911;DHT22;5508;49.150;11.030;2023-04-01T02:42:53;6.90;98.80
10911;DHT22;5508;49.150;11.030;2023-04-01T02:45:54;6.80;99.10
10911;DHT22;5508;49.150;11.030;2023-04-01T02:48:54;6.70;99.60
10911;DHT22;5508;49.150;11.030;2023-04-01T02:51:55;6.80;98.50
10911;DHT22;5508;49.150;11.030;2023-04-01T02:54:56;6.90;97.60
10911;DHT22;5508;49.150;11.030;2023-04-01T02:57:57;6.80;98.70
10911;DHT22;5508;49.150;11.030;2023-04-01T03:00:58;6.80;98.40
10911;DHT22;5508;49.150;11.030;2023-04-01T03:03:58;6.80;98.70
10911;DHT22;5508;49.150;11.030;2023-04-01T03:06:59;6.80;99.10
10911;DHT22;5508;49.150;11.030;2023-04-01T03:09:59;6.70;99.30
10911;DHT22;5508;49.150;11.030;2023-04-01T03:13:00;6.70;99.50
10911;DHT22;5508;49.150;11.030;2023-04-01T03:16:01;6.70;98.70
10911;DHT22;5508;49.150;11.030;2023-04-01T03:19:02;6.70;99.80
10911;DHT22;5508;49.150;11.030;2023-04-01T03:22:02;6.70;99.80
10911;DHT22;5508;49.150;11.030;2023-04-01T03:25:04;6.70;99.60
10911;DHT22;5508;49.150;11.030;2023-04-01T03:28:05;6.70;99.90
10911;DHT22;5508;49.150;11.030;2023-04-01T03:31:05;6.70;98.80
10911;DHT22;5508;49.150;11.030;2023-04-01T03:34:06;6.70;98.00
10911;DHT22;5508;49.150;11.030;2023-04-01T03:37:08;6.80;96.50
10911;DHT22;5508;49.150;11.030;2023-04-01T03:40:09;7.00;95.20
10911;DHT22;5508;49.150;11.030;2023-04-01T03:43:10;7.20;92.70
10911;DHT22;5508;49.150;11.030;2023-04-01T03:46:11;7.10;93.00
10911;DHT22;5508;49.150;11.030;2023-04-01T03:49:11;7.10;93.40
10911;DHT22;5508;49.150;11.030;2023-04-01T03:52:12;7.00;94.40
10911;DHT22;5508;49.150;11.030;2023-04-01T03:55:13;6.90;94.80
10911;DHT22;5508;49.150;11.030;2023-04-01T03:58:13;6.90;95.50
10911;DHT22;5508;49.150;11.030;2023-04-01T04:01:20;6.80;95.30
10911;DHT22;5508;49.150;11.030;2023-04-01T04:04:24;6.80;95.20
10911;DHT22;5508;49.150;11.030;2023-04-01T04:07:24;6.80;95.80
10911;DHT22;5508;49.150;11.030;2023-04-01T04:10:25;6.70;96.50
10911;DHT22;5508;49.150;11.030;2023-04-01T04:13:26;6.70;96.60
10911;DHT22;5508;49.150;11.030;2023-04-01T04:16:26;6.60;96.80
10911;DHT22;5508;49.150;11.030;2023-04-01T04:19:32;6.70;96.30
10911;DHT22;5508;49.150;11.030;2023-04-01T04:22:34;6.80;95.40
10911;DHT22;5508;49.150;11.030;2023-04-01T04:25:34;6.90;96.40
10911;DHT22;5508;49.150;11.030;2023-04-01T04:28:35;6.80;96.30
10911;DHT22;5508;49.150;11.030;2023-04-01T04:31:36;6.70;96.60
10911;DHT22;5508;49.150;11.030;2023-04-01T04:34:36;6.60;96.90
10911;DHT22;5508;49.150;11.030;2023-04-01T04:37:37;6.50;97.80
10911;DHT22;5508;49.150;11.030;2023-04-01T04:40:38;6.60;97.30
10911;DHT22;5508;49.150;11.030;2023-04-01T04:43:40;6.70;96.40
10911;DHT22;5508;49.150;11.030;2023-04-01T04:46:41;6.90;94.10
10911;DHT22;5508;49.150;11.030;2023-04-01T04:49:42;6.80;94.70
10911;DHT22;5508;49.150;11.030;2023-04-01T04:52:42;6.80;93.80
10911;DHT22;5508;49.150;11.030;2023-04-01T04:55:48;6.90;92.50
10911;DHT22;5508;49.150;11.030;2023-04-01T04:58:48;7.00;91.80
10911;DHT22;5508;49.150;11.030;2023-04-01T05:01:49;7.00;92.10
10911;DHT22;5508;49.150;11.030;2023-04-01T05:04:49;7.00;91.30
10911;DHT22;5508;49.150;11.030;2023-04-01T05:07:50;7.00;91.30
10911;DHT22;5508;49.150;11.030;2023-04-01T05:10:51;7.00;91.70
10911;DHT22;5508;49.150;11.030;2023-04-01T05:13:52;6.90;93.00
10911;DHT22;5508;49.150;11.030;2023-04-01T05:16:52;6.90;92.90
10911;DHT22;5508;49.150;11.030;2023-04-01T05:19:54;7.00;92.60
10911;DHT22;5508;49.150;11.030;2023-04-01T05:22:58;7.00;92.70
10911;DHT22;5508;49.150;11.030;2023-04-01T05:26:07;7.10;91.30
10911;DHT22;5508;49.150;11.030;2023-04-01T05:29:08;7.00;93.10
10911;DHT22;5508;49.150;11.030;2023-04-01T05:32:10;7.00;91.80
10911;DHT22;5508;49.150;11.030;2023-04-01T05:35:10;7.00;92.60
10911;DHT22;5508;49.150;11.030;2023-04-01T05:38:11;7.00;90.50
10911;DHT22;5508;49.150;11.030;2023-04-01T05:41:12;7.00;93.30
10911;DHT22;5508;49.150;11.030;2023-04-01T05:44:13;7.10;90.80
10911;DHT22;5508;49.150;11.030;2023-04-01T05:47:13;7.20;89.00
10911;DHT22;5508;49.150;11.030;2023-04-01T05:50:14;7.20;89.50
10911;DHT22;5508;49.150;11.030;2023-04-01T05:53:15;7.30;88.30
10911;DHT22;5508;49.150;11.030;2023-04-01T05:56:16;7.30;89.40
10911;DHT22;5508;49.150;11.030;2023-04-01T05:59:16;7.30;91.00
10911;DHT22;5508;49.150;11.030;2023-04-01T06:02:17;7.30;90.80
10911;DHT22;5508;49.150;11.030;2023-04-01T06:05:21;7.30;90.70
10911;DHT22;5508;49.150;11.030;2023-04-01T06:08:23;7.30;92.00
10911;DHT22;5508;49.150;11.030;2023-04-01T06:18:53;7.40;93.50
10911;DHT22;5508;49.150;11.030;2023-04-01T06:22:37;7.50;94.40
10911;DHT22;5508;49.150;11.030;2023-04-01T06:49:56;7.80;92.20
10911;DHT22;5508;49.150;11.030;2023-04-01T06:56:34;7.90;92.50
10911;DHT22;5508;49.150;11.030;2023-04-01T06:59:37;8.00;92.80
10911;DHT22;5508;49.150;11.030;2023-04-01T07:02:43;7.90;90.40
10911;DHT22;5508;49.150;11.030;2023-04-01T07:05:47;7.90;91.30
10911;DHT22;5508;49.150;11.030;2023-04-01T07:08:49;7.80;89.60
10911;DHT22;5508;49.150;11.030;2023-04-01T07:11:50;8.00;89.90
10911;DHT22;5508;49.150;11.030;2023-04-01T07:14:54;8.20;89.50
10911;DHT22;5508;49.150;11.030;2023-04-01T07:18:05;8.40;89.20
10911;DHT22;5508;49.150;11.030;2023-04-01T07:21:19;8.40;85.80
10911;DHT22;5508;49.150;11.030;2023-04-01T07:24:27;8.30;84.80
10911;DHT22;5508;49.150;11.030;2023-04-01T07:27:27;8.90;88.40
10911;DHT22;5508;49.150;11.030;2023-04-01T07:30:46;9.20;82.70
10911;DHT22;5508;49.150;11.030;2023-04-01T07:37:15;9.50;82.40
10911;DHT22;5508;49.150;11.030;2023-04-01T07:50:29;9.50;80.10
10911;DHT22;5508;49.150;11.030;2023-04-01T07:53:43;9.70;81.00
10911;DHT22;5508;49.150;11.030;2023-04-01T08:00:24;10.00;79.50
10911;DHT22;5508;49.150;11.030;2023-04-01T08:07:04;10.00;78.20
10911;DHT22;5508;49.150;11.030;2023-04-01T08:13:40;10.00;77.10
10911;DHT22;5508;49.150;11.030;2023-04-01T08:20:11;10.30;77.70
10911;DHT22;5508;49.150;11.030;2023-04-01T08:26:35;9.50;78.30
10911;DHT22;5508;49.150;11.030;2023-04-01T08:29:41;9.40;79.30
10911;DHT22;5508;49.150;11.030;2023-04-01T08:32:53;9.50;81.10
10911;DHT22;5508;49.150;11.030;2023-04-01T08:36:10;9.50;80.30
10911;DHT22;5508;49.150;11.030;2023-04-01T08:39:18;9.40;81.50
10911;DHT22;5508;49.150;11.030;2023-04-01T08:52:34;9.70;79.40
10911;DHT22;5508;49.150;11.030;2023-04-01T08:59:39;9.50;84.60
10911;DHT22;5508;49.150;11.030;2023-04-01T09:09:48;9.40;81.20
10911;DHT22;5508;49.150;11.030;2023-04-01T09:19:45;9.80;81.50
10911;DHT22;5508;49.150;11.030;2023-04-01T09:37:00;9.10;85.90
10911;DHT22;5508;49.150;11.030;2023-04-01T09:41:16;8.90;89.30
10911;DHT22;5508;49.150;11.030;2023-04-01T09:43:48;8.90;91.70
10911;DHT22;5508;49.150;11.030;2023-04-01T10:04:15;8.70;98.50
10911;DHT22;5508;49.150;11.030;2023-04-01T10:08:01;8.80;99.00
10911;DHT22;5508;49.150;11.030;2023-04-01T11:31:31;8.20;99.90
10911;DHT22;5508;49.150;11.030;2023-04-01T11:44:28;8.40;99.90
10911;DHT22;5508;49.150;11.030;2023-04-01T12:07:56;8.20;99.90
10911;DHT22;5508;49.150;11.030;2023-04-01T12:14:23;7.90;99.90
10911;DHT22;5508;49.150;11.030;2023-04-01T12:21:00;8.10;99.90
10911;DHT22;5508;49.150;11.030;2023-04-01T12:31:14;8.10;99.90
10911;DHT22;5508;49.150;11.030;2023-04-01T12:38:31;8.10;99.90
10911;DHT22;5508;49.150;11.030;2023-04-01T12:41:59;8.00;99.90
10911;DHT22;5508;49.150;11.030;2023-04-01T12:45:31;8.00;99.90
10911;DHT22;5508;49.150;11.030;2023-04-01T12:55:35;8.00;99.90
10911;DHT22;5508;49.150;11.030;2023-04-01T12:58:55;8.00;99.90
10911;DHT22;5508;49.150;11.030;2023-04-01T13:15:24;8.40;99.90
10911;DHT22;5508;49.150;11.030;2023-04-01T13:18:56;8.40;99.90
10911;DHT22;5508;49.150;11.030;2023-04-01T13:25:19;8.50;99.90
10911;DHT22;5508;49.150;11.030;2023-04-01T13:28:29;8.60;99.90
10911;DHT22;5508;49.150;11.030;2023-04-01T13:48:27;8.50;99.90
10911;DHT22;5508;49.150;11.030;2023-04-01T13:55:20;8.20;99.90
10911;DHT22;5508;49.150;11.030;2023-04-01T14:22:09;8.90;99.90
10911;DHT22;5508;49.150;11.030;2023-04-01T14:45:44;8.90;99.90
10911;DHT22;5508;49.150;11.030;2023-04-01T14:48:52;8.80;99.90
10911;DHT22;5508;49.150;11.030;2023-04-01T14:51:54;8.80;99.90
10911;DHT22;5508;49.150;11.030;2023-04-01T14:54:54;8.80;99.90
10911;DHT22;5508;49.150;11.030;2023-04-01T14:58:08;8.70;99.90
10911;DHT22;5508;49.150;11.030;2023-04-01T15:01:32;8.70;99.90
10911;DHT22;5508;49.150;11.030;2023-04-01T15:08:12;8.50;99.90
10911;DHT22;5508;49.150;11.030;2023-04-01T15:22:03;8.60;99.90
10911;DHT22;5508;49.150;11.030;2023-04-01T15:36:20;8.90;99.90
10911;DHT22;5508;49.150;11.030;2023-04-01T15:43:14;8.80;99.90
10911;DHT22;5508;49.150;11.030;2023-04-01T15:49:42;8.60;99.90
10911;DHT22;5508;49.150;11.030;2023-04-01T15:52:55;8.50;99.20
10911;DHT22;5508;49.150;11.030;2023-04-01T15:59:23;8.40;96.60
10911;DHT22;5508;49.150;11.030;2023-04-01T16:06:17;8.40;98.10
10911;DHT22;5508;49.150;11.030;2023-04-01T16:23:00;8.30;98.00
10911;DHT22;5508;49.150;11.030;2023-04-01T16:26:25;8.30;96.80
10911;DHT22;5508;49.150;11.030;2023-04-01T16:32:54;8.10;97.70
10911;DHT22;5508;49.150;11.030;2023-04-01T16:42:19;8.10;95.40
10911;DHT22;5508;49.150;11.030;2023-04-01T16:48:58;8.00;94.60
10911;DHT22;5508;49.150;11.030;2023-04-01T16:52:12;8.00;94.60
10911;DHT22;5508;49.150;11.030;2023-04-01T16:55:17;8.00;96.40
10911;DHT22;5508;49.150;11.030;2023-04-01T16:58:25;8.00;95.50
10911;DHT22;5508;49.150;11.030;2023-04-01T17:01:40;8.00;95.80
10911;DHT22;5508;49.150;11.030;2023-04-01T17:11:24;8.00;96.20
10911;DHT22;5508;49.150;11.030;2023-04-01T17:14:28;8.00;93.80
10911;DHT22;5508;49.150;11.030;2023-04-01T17:20:51;8.00;94.70
10911;DHT22;5508;49.150;11.030;2023-04-01T17:47:43;8.00;96.00
10911;DHT22;5508;49.150;11.030;2023-04-01T17:54:50;7.90;95.80
10911;DHT22;5508;49.150;11.030;2023-04-01T17:58:19;7.90;96.10
10911;DHT22;5508;49.150;11.030;2023-04-01T18:04:35;7.90;97.50
10911;DHT22;5508;49.150;11.030;2023-04-01T18:27:36;7.90;98.40
10911;DHT22;5508;49.150;11.030;2023-04-01T18:30:39;7.90;97.80
10911;DHT22;5508;49.150;11.030;2023-04-01T18:36:59;7.90;97.90
10911;DHT22;5508;49.150;11.030;2023-04-01T18:41:10;7.90;98.10
10911;DHT22;5508;49.150;11.030;2023-04-01T18:44:00;7.90;98.50
10911;DHT22;5508;49.150;11.030;2023-04-01T18:47:38;7.80;98.20
10911;DHT22;5508;49.150;11.030;2023-04-01T18:50:52;7.80;97.90
10911;DHT22;5508;49.150;11.030;2023-04-01T18:54:04;7.80;97.70
10911;DHT22;5508;49.150;11.030;2023-04-01T18:57:18;7.80;98.30
10911;DHT22;5508;49.150;11.030;2023-04-01T19:00:20;7.80;98.20
10911;DHT22;5508;49.150;11.030;2023-04-01T19:03:58;7.80;98.10
10911;DHT22;5508;49.150;11.030;2023-04-01T19:06:59;7.80;98.00
10911;DHT22;5508;49.150;11.030;2023-04-01T19:10:12;7.70;97.70
10911;DHT22;5508;49.150;11.030;2023-04-01T19:19:55;7.80;97.10
10911;DHT22;5508;49.150;11.030;2023-04-01T19:30:17;7.80;96.50
10911;DHT22;5508;49.150;11.030;2023-04-01T19:33:32;7.80;95.50
10911;DHT22;5508;49.150;11.030;2023-04-01T19:36:52;7.70;96.60
10911;DHT22;5508;49.150;11.030;2023-04-01T19:43:27;7.70;96.40
10911;DHT22;5508;49.150;11.030;2023-04-01T19:46:43;7.70;97.00
10911;DHT22;5508;49.150;11.030;2023-04-01T19:52:56;7.70;95.20
10911;DHT22;5508;49.150;11.030;2023-04-01T19:56:21;7.80;96.10
10911;DHT22;5508;49.150;11.030;2023-04-01T20:03:04;7.60;95.80
10911;DHT22;5508;49.150;11.030;2023-04-01T20:06:22;7.70;95.70
10911;DHT22;5508;49.150;11.030;2023-04-01T20:13:06;7.70;96.00
10911;DHT22;5508;49.150;11.030;2023-04-01T20:16:13;7.60;95.90
10911;DHT22;5508;49.150;11.030;2023-04-01T20:19:39;7.70;95.70
10911;DHT22;5508;49.150;11.030;2023-04-01T20:25:53;7.60;95.60
10911;DHT22;5508;49.150;11.030;2023-04-01T20:39:07;7.60;95.10
10911;DHT22;5508;49.150;11.030;2023-04-01T20:49:26;7.50;94.60
10911;DHT22;5508;49.150;11.030;2023-04-01T20:52:37;7.40;95.10
10911;DHT22;5508;49.150;11.030;2023-04-01T21:06:07;7.30;96.20
10911;DHT22;5508;49.150;11.030;2023-04-01T21:26:39;7.20;98.10
10911;DHT22;5508;49.150;11.030;2023-04-01T21:40:39;7.20;99.80
10911;DHT22;5508;49.150;11.030;2023-04-01T22:06:46;7.30;99.90
10911;DHT22;5508;49.150;11.030;2023-04-01T22:10:41;7.30;99.90
10911;DHT22;5508;49.150;11.030;2023-04-01T22:17:04;7.30;99.90
10911;DHT22;5508;49.150;11.030;2023-04-01T22:20:28;7.30;99.90
10911;DHT22;5508;49.150;11.030;2023-04-01T22:27:13;7.40;99.90
10911;DHT22;5508;49.150;11.030;2023-04-01T22:30:40;7.30;99.90
10911;DHT22;5508;49.150;11.030;2023-04-01T22:36:56;7.30;99.90
10911;DHT22;5508;49.150;11.030;2023-04-01T22:43:43;7.30;99.90
10911;DHT22;5508;49.150;11.030;2023-04-01T22:56:16;7.30;99.90
10911;DHT22;5508;49.150;11.030;2023-04-01T23:02:46;7.30;99.90
10911;DHT22;5508;49.150;11.030;2023-04-01T23:06:56;7.30;99.90
10911;DHT22;5508;49.150;11.030;2023-04-01T23:09:37;7.20;99.90
10911;DHT22;5508;49.150;11.030;2023-04-01T23:12:39;7.30;99.90
10911;DHT22;5508;49.150;11.030;2023-04-01T23:15:40;7.30;99.90
10911;DHT22;5508;49.150;11.030;2023-04-01T23:28:50;7.30;99.90
10911;DHT22;5508;49.150;11.030;2023-04-01T23:31:59;7.30;99.90
10911;DHT22;5508;49.150;11.030;2023-04-01T23:35:00;7.20;99.90
10911;DHT22;5508;49.150;11.030;2023-04-01T23:38:01;7.20;99.90
10911;DHT22;5508;49.150;11.030;2023-04-01T23:41:02;7.20;99.90
10911;DHT22;5508;49.150;11.030;2023-04-01T23:44:11;7.20;99.90
10911;DHT22;5508;49.150;11.030;2023-04-01T23:47:26;7.10;99.90
10911;DHT22;5508;49.150;11.030;2023-04-01T23:50:29;7.10;99.90
10911;DHT22;5508;49.150;11.030;2023-04-01T23:53:33;7.00;99.90
10911;DHT22;5508;49.150;11.030;2023-04-01T23:56:38;7.00;99.90
10911;DHT22;5508;49.150;11.030;2023-04-01T23:59:39;7.00;99.90
